createdAt,value
2018-02-23T00:00:24.135Z,-1.80
2018-02-23T00:02:56.737Z,-1.80
2018-02-23T00:05:27.974Z,-1.90
2018-02-23T00:07:59.358Z,-1.80
2018-02-23T00:10:30.169Z,-1.90
2018-02-23T00:13:00.500Z,-2.00
2018-02-23T00:15:33.493Z,-1.90
2018-02-23T00:18:04.488Z,-2.00
2018-02-23T00:20:35.948Z,-1.90
2018-02-23T00:23:12.594Z,-2.00
2018-02-23T00:25:43.476Z,-2.00
2018-02-23T00:31:00.181Z,-2.00
2018-02-23T00:33:32.388Z,-2.00
2018-02-23T00:36:03.449Z,-2.00
2018-02-23T00:38:35.364Z,-2.00
2018-02-23T00:41:06.576Z,-2.00
2018-02-23T00:43:42.203Z,-1.90
2018-02-23T00:46:13.583Z,-2.00
2018-02-23T00:48:46.940Z,-1.80
2018-02-23T00:51:19.725Z,-1.80
2018-02-23T00:53:51.084Z,-1.80
2018-02-23T00:56:21.698Z,-1.90
2018-02-23T00:58:52.631Z,-1.90
2018-02-23T01:01:24.154Z,-1.90
2018-02-23T01:03:54.989Z,-2.00
2018-02-23T01:06:26.532Z,-2.00
2018-02-23T01:09:04.892Z,-1.80
2018-02-23T01:11:37.428Z,-1.80
2018-02-23T01:14:10.912Z,-1.80
2018-02-23T01:16:42.724Z,-1.90
2018-02-23T01:19:13.710Z,-1.80
2018-02-23T01:21:47.771Z,-1.80
2018-02-23T01:24:19.607Z,-1.90
2018-02-23T01:26:54.752Z,-2.00
2018-02-23T01:29:25.148Z,-2.00
2018-02-23T01:32:01.610Z,-2.10
2018-02-23T01:34:33.657Z,-2.10
2018-02-23T01:37:05.045Z,-2.00
2018-02-23T01:39:36.739Z,-2.00
2018-02-23T01:42:08.292Z,-2.00
2018-02-23T01:44:38.778Z,-2.00
2018-02-23T01:47:11.096Z,-2.20
2018-02-23T01:49:41.803Z,-2.20
2018-02-23T01:52:12.393Z,-2.00
2018-02-23T01:54:44.814Z,-2.00
2018-02-23T01:57:15.287Z,-2.00
2018-02-23T01:59:47.238Z,-1.90
2018-02-23T02:02:19.131Z,-1.90
2018-02-23T02:04:50.787Z,-2.00
2018-02-23T02:07:21.310Z,-2.00
2018-02-23T02:09:52.264Z,-2.10
2018-02-23T02:12:22.887Z,-2.00
2018-02-23T02:14:54.481Z,-2.00
2018-02-23T02:17:25.143Z,-2.00
2018-02-23T02:19:57.196Z,-2.20
2018-02-23T02:22:28.219Z,-2.20
2018-02-23T02:25:00.661Z,-2.20
2018-02-23T02:27:31.468Z,-2.20
2018-02-23T02:30:02.216Z,-2.10
2018-02-23T02:32:32.922Z,-2.10
2018-02-23T02:35:03.586Z,-2.10
2018-02-23T02:37:35.285Z,-2.30
2018-02-23T02:40:05.772Z,-2.30
2018-02-23T02:42:36.216Z,-2.30
2018-02-23T02:45:06.633Z,-2.20
2018-02-23T02:47:37.518Z,-2.20
2018-02-23T02:50:08.485Z,-2.10
2018-02-23T02:52:39.103Z,-2.10
2018-02-23T02:55:10.541Z,-2.20
2018-02-23T02:57:41.111Z,-2.20
2018-02-23T03:00:11.826Z,-2.10
2018-02-23T03:02:42.386Z,-2.10
2018-02-23T03:05:13.144Z,-2.10
2018-02-23T03:07:43.630Z,-2.20
2018-02-23T03:10:14.425Z,-2.20
2018-02-23T03:12:45.812Z,-2.20
2018-02-23T03:15:17.269Z,-2.20
2018-02-23T03:17:47.607Z,-2.30
2018-02-23T03:20:18.319Z,-2.30
2018-02-23T03:22:49.052Z,-2.10
2018-02-23T03:25:20.133Z,-2.20
2018-02-23T03:27:51.146Z,-2.10
2018-02-23T03:30:22.125Z,-2.20
2018-02-23T03:32:52.623Z,-2.20
2018-02-23T03:35:23.060Z,-2.20
2018-02-23T03:37:54.266Z,-2.20
2018-02-23T03:40:25.124Z,-2.20
2018-02-23T03:42:55.443Z,-2.40
2018-02-23T03:45:26.319Z,-2.40
2018-02-23T03:47:57.608Z,-2.40
2018-02-23T03:50:30.816Z,-2.30
2018-02-23T03:53:00.934Z,-2.30
2018-02-23T03:55:31.529Z,-2.10
2018-02-23T03:58:02.148Z,-2.20
2018-02-23T04:00:32.657Z,-2.20
2018-02-23T04:03:02.777Z,-2.40
2018-02-23T04:05:33.544Z,-2.30
2018-02-23T04:08:04.235Z,-2.20
2018-02-23T04:10:34.524Z,-2.30
2018-02-23T04:13:05.183Z,-2.40
2018-02-23T04:15:35.900Z,-2.40
2018-02-23T04:18:06.487Z,-2.50
2018-02-23T04:20:36.958Z,-2.40
2018-02-23T04:23:08.105Z,-2.20
2018-02-23T04:25:39.174Z,-2.20
2018-02-23T04:28:10.049Z,-2.20
2018-02-23T04:30:41.289Z,-2.20
2018-02-23T04:33:12.633Z,-2.40
2018-02-23T04:35:44.229Z,-2.40
2018-02-23T04:38:16.334Z,-2.40
2018-02-23T04:40:46.885Z,-2.40
2018-02-23T04:43:17.259Z,-2.50
2018-02-23T04:45:48.673Z,-2.40
2018-02-23T04:48:19.473Z,-2.40
2018-02-23T04:50:56.913Z,-2.40
2018-02-23T04:53:28.771Z,-2.40
2018-02-23T04:55:58.914Z,-2.40
2018-02-23T04:58:30.441Z,-2.40
2018-02-23T05:01:04.076Z,-2.40
2018-02-23T05:03:35.531Z,-2.60
2018-02-23T05:06:06.854Z,-2.60
2018-02-23T05:08:43.310Z,-2.40
2018-02-23T05:11:14.111Z,-2.50
2018-02-23T05:13:44.690Z,-2.50
2018-02-23T05:16:15.055Z,-2.50
2018-02-23T05:18:45.688Z,-2.50
2018-02-23T05:21:16.738Z,-2.60
2018-02-23T05:23:47.438Z,-2.50
2018-02-23T05:26:18.161Z,-2.50
2018-02-23T05:28:48.906Z,-2.50
2018-02-23T05:31:22.871Z,-2.50
2018-02-23T05:34:27.723Z,-2.50
2018-02-23T05:36:58.483Z,-2.60
2018-02-23T05:39:29.344Z,-2.60
2018-02-23T05:42:00.454Z,-2.60
2018-02-23T05:44:40.761Z,-2.60
2018-02-23T05:47:11.896Z,-2.60
2018-02-23T05:49:43.756Z,-2.50
2018-02-23T05:52:13.917Z,-2.60
2018-02-23T05:54:45.248Z,-2.60
2018-02-23T05:57:15.764Z,-2.60
2018-02-23T05:59:46.338Z,-2.60
2018-02-23T06:02:17.168Z,-2.70
2018-02-23T06:04:48.184Z,-2.70
2018-02-23T06:07:19.769Z,-2.70
2018-02-23T06:09:55.084Z,-2.60
2018-02-23T06:12:28.587Z,-2.80
2018-02-23T06:14:59.440Z,-2.70
2018-02-23T06:17:33.918Z,-2.70
2018-02-23T06:20:08.568Z,-2.70
2018-02-23T06:24:04.229Z,-2.60
2018-02-23T06:26:34.593Z,-2.60
2018-02-23T06:29:05.484Z,-2.70
2018-02-23T06:31:36.782Z,-2.50
2018-02-23T06:34:09.351Z,-2.60
2018-02-23T06:36:42.209Z,-2.60
2018-02-23T06:39:14.970Z,-2.60
2018-02-23T06:41:46.069Z,-2.70
2018-02-23T06:44:17.485Z,-2.80
2018-02-23T06:46:51.949Z,-2.70
2018-02-23T06:49:26.763Z,-2.60
2018-02-23T06:52:30.458Z,-2.80
2018-02-23T06:55:03.106Z,-2.80
2018-02-23T06:57:34.293Z,-2.70
2018-02-23T07:00:05.697Z,-2.70
2018-02-23T07:02:36.309Z,-2.70
2018-02-23T07:05:06.582Z,-2.70
2018-02-23T07:07:37.229Z,-2.90
2018-02-23T07:10:07.821Z,-2.90
2018-02-23T07:12:38.845Z,-2.90
2018-02-23T07:15:13.766Z,-2.80
2018-02-23T07:17:48.954Z,-2.70
2018-02-23T07:20:20.998Z,-2.80
2018-02-23T07:23:40.556Z,-2.80
2018-02-23T07:26:12.566Z,-2.70
2018-02-23T07:28:47.136Z,-2.70
2018-02-23T07:31:17.937Z,-2.70
2018-02-23T07:33:48.402Z,-2.70
2018-02-23T07:36:19.429Z,-2.60
2018-02-23T07:38:55.245Z,-2.70
2018-02-23T07:41:33.200Z,-2.70
2018-02-23T07:44:05.472Z,-2.70
2018-02-23T07:46:38.271Z,-2.70
2018-02-23T07:49:09.083Z,-2.70
2018-02-23T07:51:42.583Z,-2.70
2018-02-23T07:54:14.815Z,-2.70
2018-02-23T07:56:45.610Z,-2.60
2018-02-23T07:59:16.051Z,-2.50
2018-02-23T08:01:46.311Z,-2.40
2018-02-23T08:04:30.016Z,-2.50
2018-02-23T08:07:17.017Z,-2.60
2018-02-23T08:09:50.925Z,-2.60
2018-02-23T08:12:35.040Z,-2.70
2018-02-23T08:15:06.165Z,-2.70
2018-02-23T08:17:46.933Z,-2.60
2018-02-23T08:20:24.045Z,-2.70
2018-02-23T08:22:55.095Z,-2.70
2018-02-23T08:26:01.104Z,-2.60
2018-02-23T08:28:34.231Z,-2.50
2018-02-23T08:31:04.758Z,-2.60
2018-02-23T08:33:37.776Z,-2.70
2018-02-23T08:36:08.782Z,-2.70
2018-02-23T08:38:39.706Z,-2.50
2018-02-23T08:41:11.903Z,-2.50
2018-02-23T08:43:43.721Z,-2.30
2018-02-23T08:46:15.970Z,-2.30
2018-02-23T08:48:48.106Z,-2.30
2018-02-23T08:51:20.148Z,-2.20
2018-02-23T08:53:52.390Z,-2.20
2018-02-23T08:56:36.900Z,-2.30
2018-02-23T08:59:08.357Z,-2.40
2018-02-23T09:01:46.799Z,-2.40
2018-02-23T09:04:44.192Z,-2.20
2018-02-23T09:07:16.791Z,-2.00
2018-02-23T09:09:48.025Z,-2.00
2018-02-23T09:12:23.173Z,-2.10
2018-02-23T09:18:31.095Z,-2.10
2018-02-23T09:21:04.702Z,-2.00
2018-02-23T09:23:35.275Z,-2.00
2018-02-23T09:26:06.115Z,-2.00
2018-02-23T09:28:36.843Z,-2.00
2018-02-23T09:31:08.274Z,-1.90
2018-02-23T09:33:52.832Z,-2.00
2018-02-23T09:36:22.976Z,-2.00
2018-02-23T09:43:13.536Z,-1.70
2018-02-23T09:53:04.206Z,-1.50
2018-02-23T09:58:36.408Z,-1.70
2018-02-23T10:01:34.107Z,-1.70
2018-02-23T10:04:06.249Z,-1.60
2018-02-23T10:06:40.987Z,-1.30
2018-02-23T10:09:12.788Z,-1.30
2018-02-23T10:11:43.020Z,-1.00
2018-02-23T10:14:18.286Z,-0.80
2018-02-23T10:16:49.476Z,-0.90
2018-02-23T10:19:28.058Z,-0.80
2018-02-23T10:22:00.507Z,-0.70
2018-02-23T10:24:31.624Z,-0.60
2018-02-23T10:27:55.153Z,-0.40
2018-02-23T10:30:36.509Z,-0.50
2018-02-23T10:33:11.464Z,-0.60
2018-02-23T10:35:44.189Z,-1.10
2018-02-23T10:38:16.146Z,-0.90
2018-02-23T10:40:49.579Z,-0.90
2018-02-23T10:43:29.833Z,-0.80
2018-02-23T10:46:05.541Z,-1.10
2018-02-23T10:48:38.792Z,-1.10
2018-02-23T10:51:10.527Z,-1.10
2018-02-23T10:53:45.982Z,-0.90
2018-02-23T10:57:00.116Z,-0.80
2018-02-23T10:59:30.552Z,-0.90
2018-02-23T11:02:05.124Z,-0.80
2018-02-23T11:04:38.971Z,-1.00
2018-02-23T11:07:19.781Z,-1.00
2018-02-23T11:09:50.389Z,-1.00
2018-02-23T11:12:39.243Z,-0.80
2018-02-23T11:15:10.307Z,-0.50
2018-02-23T11:17:43.408Z,-0.40
2018-02-23T11:23:06.953Z,-0.30
2018-02-23T11:25:38.649Z,-0.40
2018-02-23T11:28:10.843Z,-1.00
2018-02-23T11:30:42.518Z,-1.00
2018-02-23T11:33:13.254Z,-1.00
2018-02-23T11:35:55.793Z,-0.70
2018-02-23T11:38:28.021Z,-0.70
2018-02-23T11:40:58.302Z,-0.70
2018-02-23T11:43:28.958Z,-0.70
2018-02-23T11:46:02.146Z,-0.90
2018-02-23T11:48:32.661Z,-0.90
2018-02-23T11:51:03.717Z,-1.20
2018-02-23T11:53:35.823Z,-1.00
2018-02-23T11:56:07.361Z,-0.80
2018-02-23T11:58:39.871Z,-1.10
2018-02-23T12:01:25.187Z,-1.10
2018-02-23T12:04:07.435Z,-1.30
2018-02-23T12:07:00.529Z,-1.10
2018-02-23T12:09:50.389Z,-1.20
2018-02-23T12:12:20.615Z,-0.90
2018-02-23T12:14:56.733Z,-1.00
2018-02-23T12:17:27.708Z,-1.00
2018-02-23T12:20:03.158Z,-1.00
2018-02-23T12:22:34.788Z,-1.20
2018-02-23T12:25:06.056Z,-1.20
2018-02-23T12:27:38.042Z,-1.30
2018-02-23T12:30:08.871Z,-1.30
2018-02-23T12:32:40.553Z,-1.00
2018-02-23T12:35:12.979Z,-0.90
2018-02-23T12:37:57.856Z,-0.90
2018-02-23T12:40:32.511Z,-0.80
2018-02-23T12:43:04.792Z,-0.70
2018-02-23T12:45:45.872Z,-0.90
2018-02-23T12:48:18.738Z,-0.80
2018-02-23T12:50:51.805Z,-0.90
2018-02-23T12:53:25.834Z,-0.90
2018-02-23T12:55:57.754Z,-1.10
2018-02-23T12:58:29.157Z,-0.80
2018-02-23T13:01:29.332Z,-0.90
2018-02-23T13:04:29.707Z,-0.90
2018-02-23T13:07:05.993Z,-0.90
2018-02-23T13:09:50.941Z,-1.00
2018-02-23T13:12:30.400Z,-0.90
2018-02-23T13:15:05.383Z,-1.30
2018-02-23T13:17:37.217Z,-1.30
2018-02-23T13:20:11.336Z,-1.20
2018-02-23T13:22:43.251Z,-1.00
2018-02-23T13:25:19.913Z,-1.00
2018-02-23T13:31:32.822Z,-0.80
2018-02-23T13:34:20.074Z,-0.90
2018-02-23T13:36:55.768Z,-0.90
2018-02-23T13:39:37.340Z,-0.80
2018-02-23T13:42:10.463Z,-1.00
2018-02-23T13:44:42.248Z,-0.90
2018-02-23T13:47:12.352Z,-0.90
2018-02-23T13:49:43.254Z,-0.70
2018-02-23T13:52:14.153Z,-0.90
2018-02-23T13:54:48.870Z,-0.90
2018-02-23T13:57:35.378Z,-0.80
2018-02-23T14:00:19.639Z,-0.90
2018-02-23T14:02:52.426Z,-0.70
2018-02-23T14:05:24.802Z,-0.60
2018-02-23T14:07:56.862Z,-0.50
2018-02-23T14:10:38.573Z,-0.70
2018-02-23T14:13:18.948Z,-1.20
2018-02-23T14:16:00.565Z,-1.20
2018-02-23T14:18:33.825Z,-1.20
2018-02-23T14:21:06.445Z,-1.20
2018-02-23T14:23:39.210Z,-1.00
2018-02-23T14:26:09.599Z,-1.10
2018-02-23T14:31:34.635Z,-1.00
2018-02-23T14:34:05.327Z,-0.80
2018-02-23T14:36:36.482Z,-0.70
2018-02-23T14:39:06.945Z,-0.70
2018-02-23T14:41:38.092Z,-0.70
2018-02-23T14:44:16.939Z,-0.80
2018-02-23T14:46:48.171Z,-0.80
2018-02-23T14:49:21.188Z,-0.80
2018-02-23T14:51:53.046Z,-0.60
2018-02-23T14:54:24.341Z,-0.70
2018-02-23T14:56:55.210Z,-0.70
2018-02-23T14:59:25.496Z,-0.80
2018-02-23T15:01:56.962Z,-1.00
2018-02-23T15:04:27.566Z,-1.00
2018-02-23T15:06:58.579Z,-0.90
2018-02-23T15:09:33.054Z,-0.80
2018-02-23T15:12:07.735Z,-0.90
2018-02-23T15:14:38.377Z,-1.00
2018-02-23T15:17:10.565Z,-0.80
2018-02-23T15:19:41.146Z,-0.70
2018-02-23T15:22:12.630Z,-0.90
2018-02-23T15:24:49.015Z,-0.90
2018-02-23T15:27:24.978Z,-0.80
2018-02-23T15:29:59.125Z,-1.10
2018-02-23T15:32:31.944Z,-1.10
2018-02-23T15:35:10.900Z,-1.10
2018-02-23T15:37:44.248Z,-0.90
2018-02-23T15:40:16.087Z,-0.90
2018-02-23T15:42:47.883Z,-0.90
2018-02-23T15:45:27.437Z,-0.90
2018-02-23T15:48:08.885Z,-1.00
2018-02-23T15:50:49.597Z,-1.10
2018-02-23T15:53:26.041Z,-1.00
2018-02-23T15:55:59.027Z,-1.00
2018-02-23T15:58:39.204Z,-1.00
2018-02-23T16:01:11.011Z,-1.00
2018-02-23T16:03:42.746Z,-1.20
2018-02-23T16:06:22.207Z,-1.10
2018-02-23T16:08:55.039Z,-1.10
2018-02-23T16:11:44.102Z,-1.10
2018-02-23T16:14:48.644Z,-1.00
2018-02-23T16:22:00.612Z,-0.80
2018-02-23T16:24:31.149Z,-1.00
2018-02-23T16:27:18.219Z,-1.10
2018-02-23T16:29:50.043Z,-1.00
2018-02-23T16:32:23.156Z,-1.10
2018-02-23T16:34:58.082Z,-1.10
2018-02-23T16:37:29.858Z,-1.00
2018-02-23T16:40:00.466Z,-1.00
2018-02-23T16:42:30.712Z,-1.10
2018-02-23T16:45:01.499Z,-1.30
2018-02-23T16:47:34.261Z,-1.10
2018-02-23T16:50:07.172Z,-1.00
2018-02-23T16:52:38.775Z,-0.90
2018-02-23T16:55:09.570Z,-0.80
2018-02-23T16:57:57.070Z,-0.70
2018-02-23T17:00:32.380Z,-0.90
2018-02-23T17:03:15.212Z,-0.90
2018-02-23T17:05:58.688Z,-1.00
2018-02-23T17:08:36.761Z,-1.00
2018-02-23T17:11:09.238Z,-1.10
2018-02-23T17:13:40.697Z,-1.20
2018-02-23T17:16:11.392Z,-1.10
2018-02-23T17:18:43.122Z,-1.00
2018-02-23T17:21:13.539Z,-1.00
2018-02-23T17:23:44.178Z,-0.90
2018-02-23T17:26:15.082Z,-1.00
2018-02-23T17:28:45.992Z,-1.00
2018-02-23T17:31:18.671Z,-1.10
2018-02-23T17:33:56.630Z,-1.10
2018-02-23T17:36:28.034Z,-1.00
2018-02-23T17:38:59.604Z,-0.90
2018-02-23T17:41:30.981Z,-1.00
2018-02-23T17:44:01.739Z,-1.00
2018-02-23T17:46:33.208Z,-1.10
2018-02-23T17:49:03.868Z,-0.90
2018-02-23T17:51:37.050Z,-0.80
2018-02-23T17:54:10.396Z,-0.90
2018-02-23T17:56:42.605Z,-1.20
2018-02-23T17:59:13.945Z,-1.20
2018-02-23T18:01:50.483Z,-1.00
2018-02-23T18:04:25.213Z,-1.00
2018-02-23T18:06:56.214Z,-1.00
2018-02-23T18:09:27.512Z,-1.20
2018-02-23T18:11:58.743Z,-1.20
2018-02-23T18:14:30.099Z,-1.10
2018-02-23T18:17:01.966Z,-1.10
2018-02-23T18:19:33.624Z,-1.10
2018-02-23T18:22:04.593Z,-1.10
2018-02-23T18:24:36.097Z,-0.90
2018-02-23T18:27:06.192Z,-1.00
2018-02-23T18:29:37.217Z,-0.90
2018-02-23T18:32:10.058Z,-0.90
2018-02-23T18:34:51.831Z,-0.90
2018-02-23T18:37:23.151Z,-1.10
2018-02-23T18:39:54.333Z,-1.10
2018-02-23T18:42:28.056Z,-1.10
2018-02-23T18:45:01.674Z,-1.20
2018-02-23T18:47:33.898Z,-1.20
2018-02-23T18:50:04.038Z,-1.20
2018-02-23T18:52:34.758Z,-1.20
2018-02-23T18:55:05.330Z,-1.00
2018-02-23T18:57:36.750Z,-0.90
2018-02-23T19:00:10.172Z,-1.00
2018-02-23T19:02:41.628Z,-1.00
2018-02-23T19:05:12.308Z,-0.90
2018-02-23T19:07:43.618Z,-1.00
2018-02-23T19:10:15.664Z,-1.10
2018-02-23T19:12:45.948Z,-1.20
2018-02-23T19:15:16.327Z,-1.20
2018-02-23T19:17:46.797Z,-1.10
2018-02-23T19:20:18.510Z,-0.90
2018-02-23T19:22:49.932Z,-0.80
2018-02-23T19:25:20.142Z,-0.90
2018-02-23T19:27:50.752Z,-1.00
2018-02-23T19:30:22.218Z,-1.00
2018-02-23T19:32:53.197Z,-1.20
2018-02-23T19:35:24.239Z,-1.30
2018-02-23T19:37:55.297Z,-1.10
2018-02-23T19:40:25.753Z,-0.90
2018-02-23T19:42:55.818Z,-1.00
2018-02-23T19:45:26.771Z,-1.30
2018-02-23T19:47:57.638Z,-1.30
2018-02-23T19:50:29.056Z,-1.30
2018-02-23T19:52:59.623Z,-1.10
2018-02-23T19:55:33.661Z,-1.00
2018-02-23T19:58:07.132Z,-0.90
2018-02-23T20:00:38.165Z,-1.10
2018-02-23T20:03:08.776Z,-1.10
2018-02-23T20:05:40.617Z,-1.00
2018-02-23T20:08:12.581Z,-0.90
2018-02-23T20:10:50.144Z,-1.00
2018-02-23T20:13:20.925Z,-1.20
2018-02-23T21:37:51.828Z,-1.20
2018-02-23T21:40:23.939Z,-1.30
2018-02-23T21:42:54.904Z,-1.30
2018-02-23T21:45:25.653Z,-1.30
2018-02-23T21:47:56.814Z,-1.40
2018-02-23T21:50:27.098Z,-1.40
2018-02-23T21:52:58.968Z,-1.50
2018-02-23T21:55:29.528Z,-1.50
2018-02-23T21:57:59.754Z,-1.30
2018-02-23T22:00:30.140Z,-1.30
2018-02-23T22:03:01.372Z,-1.20
2018-02-23T22:05:31.826Z,-1.20
2018-02-23T22:08:02.048Z,-1.10
2018-02-23T22:10:33.870Z,-1.20
2018-02-23T22:13:05.890Z,-1.30
2018-02-23T22:15:37.045Z,-1.30
2018-02-23T22:18:08.092Z,-1.40
2018-02-23T22:20:38.834Z,-1.30
2018-02-23T22:23:10.194Z,-1.30
2018-02-23T22:25:42.803Z,-1.30
2018-02-23T22:28:13.940Z,-1.20
2018-02-23T22:30:44.934Z,-1.20
2018-02-23T22:33:16.461Z,-1.00
2018-02-23T22:35:48.478Z,-1.00
2018-02-23T22:38:18.959Z,-1.10
2018-02-23T22:40:49.480Z,-1.10
2018-02-23T22:43:21.382Z,-1.10
2018-02-23T22:45:51.873Z,-1.10
2018-02-23T22:48:23.255Z,-1.00
2018-02-23T22:50:53.835Z,-1.10
2018-02-23T22:53:24.402Z,-1.20
2018-02-23T22:56:15.058Z,-1.00
2018-02-23T22:58:45.832Z,-1.10
2018-02-23T23:01:16.104Z,-1.10
2018-02-23T23:03:47.876Z,-1.20
2018-02-23T23:06:19.868Z,-1.30
2018-02-23T23:08:51.726Z,-1.20
2018-02-23T23:11:23.114Z,-1.20
2018-02-23T23:13:53.714Z,-1.20
2018-02-23T23:16:24.375Z,-1.30
2018-02-23T23:18:54.860Z,-1.30
2018-02-23T23:21:27.571Z,-1.20
2018-02-23T23:23:57.717Z,-1.20
2018-02-23T23:26:27.767Z,-1.10
2018-02-23T23:28:59.130Z,-1.00
2018-02-23T23:31:29.942Z,-1.00
2018-02-23T23:33:59.977Z,-1.10
2018-02-23T23:36:30.505Z,-1.00
2018-02-23T23:39:01.016Z,-1.00
2018-02-23T23:41:31.876Z,-1.10
2018-02-23T23:44:04.745Z,-1.20
2018-02-23T23:46:36.719Z,-1.10
2018-02-23T23:49:08.454Z,-1.20
2018-02-23T23:51:42.325Z,-1.30
2018-02-23T23:54:13.846Z,-1.50
2018-02-23T23:56:46.138Z,-1.40
2018-02-23T23:59:17.822Z,-1.50
